sensor_id;sensor_type;location;lat;lon;timestamp;temperature;humidity
7784;DHT22;19359;51.402;6.778;2023-04-25T00:01:55;6.90;77.70
7784;DHT22;19359;51.402;6.778;2023-04-25T00:24:06;7.10;77.60
7784;DHT22;19359;51.402;6.778;2023-04-25T00:26:35;7.20;52.30
7784;DHT22;19359;51.402;6.778;2023-04-25T00:36:24;7.00;49.40
7784;DHT22;19359;51.402;6.778;2023-04-25T00:38:52;7.10;50.30
7784;DHT22;19359;51.402;6.778;2023-04-25T00:43:48;7.00;52.80
7784;DHT22;19359;51.402;6.778;2023-04-25T00:51:12;7.10;55.30
7784;DHT22;19359;51.402;6.778;2023-04-25T00:56:07;7.40;83.10
7784;DHT22;19359;51.402;6.778;2023-04-25T01:03:33;7.00;83.10
7784;DHT22;19359;51.402;6.778;2023-04-25T01:06:01;7.10;58.10
7784;DHT22;19359;51.402;6.778;2023-04-25T01:18:20;7.10;57.50
7784;DHT22;19359;51.402;6.778;2023-04-25T01:20:47;7.20;83.70
7784;DHT22;19359;51.402;6.778;2023-04-25T01:23:18;7.20;59.50
7784;DHT22;19359;51.402;6.778;2023-04-25T01:25:45;7.40;60.20
7784;DHT22;19359;51.402;6.778;2023-04-25T01:33:08;7.30;57.50
7784;DHT22;19359;51.402;6.778;2023-04-25T01:40:31;7.10;57.10
7784;DHT22;19359;51.402;6.778;2023-04-25T01:50:25;7.10;58.90
7784;DHT22;19359;51.402;6.778;2023-04-25T01:57:47;7.20;62.70
7784;DHT22;19359;51.402;6.778;2023-04-25T02:00:14;7.10;89.30
7784;DHT22;19359;51.402;6.778;2023-04-25T02:14:59;7.10;67.60
7784;DHT22;19359;51.402;6.778;2023-04-25T02:17:26;7.10;92.00
7784;DHT22;19359;51.402;6.778;2023-04-25T02:22:20;6.60;91.30
7784;DHT22;19359;51.402;6.778;2023-04-25T02:44:26;7.10;93.80
7784;DHT22;19359;51.402;6.778;2023-04-25T02:49:21;7.00;73.30
7784;DHT22;19359;51.402;6.778;2023-04-25T03:16:21;6.80;97.40
7784;DHT22;19359;51.402;6.778;2023-04-25T03:18:48;7.00;97.80
7784;DHT22;19359;51.402;6.778;2023-04-25T03:33:33;6.80;99.30
7784;DHT22;19359;51.402;6.778;2023-04-25T03:45:50;6.70;83.60
7784;DHT22;19359;51.402;6.778;2023-04-25T03:53:13;6.80;99.90
7784;DHT22;19359;51.402;6.778;2023-04-25T04:00:36;6.40;99.90
7784;DHT22;19359;51.402;6.778;2023-04-25T04:30:07;6.40;99.90
7784;DHT22;19359;51.402;6.778;2023-04-25T04:35:03;6.30;99.90
7784;DHT22;19359;51.402;6.778;2023-04-25T04:49:57;6.20;88.30
7784;DHT22;19359;51.402;6.778;2023-04-25T04:52:24;6.10;99.90
7784;DHT22;19359;51.402;6.778;2023-04-25T04:54:51;6.00;99.90
7784;DHT22;19359;51.402;6.778;2023-04-25T04:57:17;5.90;99.90
7784;DHT22;19359;51.402;6.778;2023-04-25T04:59:44;6.00;99.90
7784;DHT22;19359;51.402;6.778;2023-04-25T05:02:11;6.00;99.90
7784;DHT22;19359;51.402;6.778;2023-04-25T05:07:06;6.00;99.90
7784;DHT22;19359;51.402;6.778;2023-04-25T05:09:33;6.00;99.90
7784;DHT22;19359;51.402;6.778;2023-04-25T05:11:59;6.00;99.90
7784;DHT22;19359;51.402;6.778;2023-04-25T05:19:20;6.00;99.20
7784;DHT22;19359;51.402;6.778;2023-04-25T05:21:47;6.10;99.00
7784;DHT22;19359;51.402;6.778;2023-04-25T05:24:15;6.10;99.70
7784;DHT22;19359;51.402;6.778;2023-04-25T05:26:42;6.00;97.00
7784;DHT22;19359;51.402;6.778;2023-04-25T05:31:36;6.30;97.50
7784;DHT22;19359;51.402;6.778;2023-04-25T05:34:03;5.80;95.30
7784;DHT22;19359;51.402;6.778;2023-04-25T05:36:29;6.30;95.20
7784;DHT22;19359;51.402;6.778;2023-04-25T05:38:57;6.30;95.60
7784;DHT22;19359;51.402;6.778;2023-04-25T05:41:26;6.80;93.90
7784;DHT22;19359;51.402;6.778;2023-04-25T05:43:52;6.40;93.60
7784;DHT22;19359;51.402;6.778;2023-04-25T05:51:13;6.60;89.00
7784;DHT22;19359;51.402;6.778;2023-04-25T05:53:40;7.30;90.90
7784;DHT22;19359;51.402;6.778;2023-04-25T05:58:35;6.80;89.40
7784;DHT22;19359;51.402;6.778;2023-04-25T06:01:02;6.80;85.80
7784;DHT22;19359;51.402;6.778;2023-04-25T06:03:29;6.90;84.50
7784;DHT22;19359;51.402;6.778;2023-04-25T06:05:55;7.00;79.90
7784;DHT22;19359;51.402;6.778;2023-04-25T06:08:22;7.40;80.50
7784;DHT22;19359;51.402;6.778;2023-04-25T06:10:49;7.40;79.10
7784;DHT22;19359;51.402;6.778;2023-04-25T06:13:16;7.10;78.30
7784;DHT22;19359;51.402;6.778;2023-04-25T06:15:44;7.20;57.90
7784;DHT22;19359;51.402;6.778;2023-04-25T06:18:10;7.30;71.70
7784;DHT22;19359;51.402;6.778;2023-04-25T06:23:04;7.40;55.10
7784;DHT22;19359;51.402;6.778;2023-04-25T06:25:31;7.30;53.60
7784;DHT22;19359;51.402;6.778;2023-04-25T06:30:25;7.20;51.10
7784;DHT22;19359;51.402;6.778;2023-04-25T06:32:53;7.20;33.60
7784;DHT22;19359;51.402;6.778;2023-04-25T06:35:20;7.10;52.20
7784;DHT22;19359;51.402;6.778;2023-04-25T06:40:14;7.20;52.30
7784;DHT22;19359;51.402;6.778;2023-04-25T06:42:42;7.10;46.80
7784;DHT22;19359;51.402;6.778;2023-04-25T06:45:10;7.60;45.30
7784;DHT22;19359;51.402;6.778;2023-04-25T06:50:06;7.40;46.80
7784;DHT22;19359;51.402;6.778;2023-04-25T06:52:33;7.60;47.80
7784;DHT22;19359;51.402;6.778;2023-04-25T06:55:00;7.30;49.50
7784;DHT22;19359;51.402;6.778;2023-04-25T06:57:26;7.30;53.50
7784;DHT22;19359;51.402;6.778;2023-04-25T06:59:53;7.60;54.00
7784;DHT22;19359;51.402;6.778;2023-04-25T07:02:20;7.30;57.30
7784;DHT22;19359;51.402;6.778;2023-04-25T07:04:47;7.30;58.60
7784;DHT22;19359;51.402;6.778;2023-04-25T07:07:15;7.20;56.80
7784;DHT22;19359;51.402;6.778;2023-04-25T07:09:42;7.00;56.40
7784;DHT22;19359;51.402;6.778;2023-04-25T07:12:09;7.00;53.10
7784;DHT22;19359;51.402;6.778;2023-04-25T07:14:35;7.00;55.70
7784;DHT22;19359;51.402;6.778;2023-04-25T07:17:03;6.60;54.20
7784;DHT22;19359;51.402;6.778;2023-04-25T07:19:32;7.10;49.90
7784;DHT22;19359;51.402;6.778;2023-04-25T07:21:58;7.20;53.20
7784;DHT22;19359;51.402;6.778;2023-04-25T07:24:27;7.40;50.40
7784;DHT22;19359;51.402;6.778;2023-04-25T07:26:53;7.60;51.50
7784;DHT22;19359;51.402;6.778;2023-04-25T07:29:20;7.90;43.40
7784;DHT22;19359;51.402;6.778;2023-04-25T07:31:47;7.80;40.80
7784;DHT22;19359;51.402;6.778;2023-04-25T07:34:14;7.80;34.00
7784;DHT22;19359;51.402;6.778;2023-04-25T07:36:41;7.90;32.60
7784;DHT22;19359;51.402;6.778;2023-04-25T07:41:36;8.30;22.90
7784;DHT22;19359;51.402;6.778;2023-04-25T07:44:03;8.50;15.90
7784;DHT22;19359;51.402;6.778;2023-04-25T07:46:30;8.60;16.10
7784;DHT22;19359;51.402;6.778;2023-04-25T07:48:56;8.50;13.30
7784;DHT22;19359;51.402;6.778;2023-04-25T07:51:23;8.40;18.00
7784;DHT22;19359;51.402;6.778;2023-04-25T07:53:51;8.20;15.30
7784;DHT22;19359;51.402;6.778;2023-04-25T08:01:13;8.70;9.60
7784;DHT22;19359;51.402;6.778;2023-04-25T08:03:40;8.80;4.30
7784;DHT22;19359;51.402;6.778;2023-04-25T08:06:07;8.60;1.00
7784;DHT22;19359;51.402;6.778;2023-04-25T08:08:33;8.60;1.00
7784;DHT22;19359;51.402;6.778;2023-04-25T08:11:00;8.70;3.40
7784;DHT22;19359;51.402;6.778;2023-04-25T08:13:27;8.70;1.30
7784;DHT22;19359;51.402;6.778;2023-04-25T08:15:55;8.70;1.20
7784;DHT22;19359;51.402;6.778;2023-04-25T08:18:21;8.60;4.80
7784;DHT22;19359;51.402;6.778;2023-04-25T08:23:15;8.60;1.00
7784;DHT22;19359;51.402;6.778;2023-04-25T08:25:42;9.30;1.00
7784;DHT22;19359;51.402;6.778;2023-04-25T08:28:09;8.90;1.00
7784;DHT22;19359;51.402;6.778;2023-04-25T08:33:05;9.70;1.00
7784;DHT22;19359;51.402;6.778;2023-04-25T08:35:31;9.50;1.00
7784;DHT22;19359;51.402;6.778;2023-04-25T08:37:59;9.30;1.00
7784;DHT22;19359;51.402;6.778;2023-04-25T08:42:57;9.70;1.00
7784;DHT22;19359;51.402;6.778;2023-04-25T08:45:25;9.40;1.00
7784;DHT22;19359;51.402;6.778;2023-04-25T08:50:23;9.90;1.00
7784;DHT22;19359;51.402;6.778;2023-04-25T08:52:53;9.60;1.00
7784;DHT22;19359;51.402;6.778;2023-04-25T08:55:21;9.30;1.00
7784;DHT22;19359;51.402;6.778;2023-04-25T08:57:48;9.60;1.00
7784;DHT22;19359;51.402;6.778;2023-04-25T09:00:16;9.20;1.00
7784;DHT22;19359;51.402;6.778;2023-04-25T09:02:45;9.20;1.00
7784;DHT22;19359;51.402;6.778;2023-04-25T09:05:13;9.20;1.00
7784;DHT22;19359;51.402;6.778;2023-04-25T09:07:41;9.40;1.00
7784;DHT22;19359;51.402;6.778;2023-04-25T09:12:36;9.80;1.00
7784;DHT22;19359;51.402;6.778;2023-04-25T09:15:07;9.70;1.00
7784;DHT22;19359;51.402;6.778;2023-04-25T09:17:34;10.10;1.00
7784;DHT22;19359;51.402;6.778;2023-04-25T09:20:06;9.90;1.00
7784;DHT22;19359;51.402;6.778;2023-04-25T09:22:34;10.30;1.00
7784;DHT22;19359;51.402;6.778;2023-04-25T09:27:32;10.30;1.00
7784;DHT22;19359;51.402;6.778;2023-04-25T09:29:59;10.40;1.00
7784;DHT22;19359;51.402;6.778;2023-04-25T09:32:26;10.60;1.00
7784;DHT22;19359;51.402;6.778;2023-04-25T09:34:54;10.80;1.00
7784;DHT22;19359;51.402;6.778;2023-04-25T09:37:23;10.90;1.00
7784;DHT22;19359;51.402;6.778;2023-04-25T09:39:51;11.40;1.00
7784;DHT22;19359;51.402;6.778;2023-04-25T09:42:22;11.60;1.00
7784;DHT22;19359;51.402;6.778;2023-04-25T09:44:51;11.30;1.00
7784;DHT22;19359;51.402;6.778;2023-04-25T09:47:18;10.90;1.00
7784;DHT22;19359;51.402;6.778;2023-04-25T09:49:47;10.60;1.00
7784;DHT22;19359;51.402;6.778;2023-04-25T09:52:15;10.70;1.00
7784;DHT22;19359;51.402;6.778;2023-04-25T09:54:42;10.70;1.00
7784;DHT22;19359;51.402;6.778;2023-04-25T09:57:14;10.80;1.00
7784;DHT22;19359;51.402;6.778;2023-04-25T09:59:45;11.00;1.00
7784;DHT22;19359;51.402;6.778;2023-04-25T10:02:13;11.20;1.00
7784;DHT22;19359;51.402;6.778;2023-04-25T10:04:41;11.20;1.00
7784;DHT22;19359;51.402;6.778;2023-04-25T10:09:37;11.00;1.00
7784;DHT22;19359;51.402;6.778;2023-04-25T10:12:05;10.70;1.00
7784;DHT22;19359;51.402;6.778;2023-04-25T10:14:33;11.20;1.00
7784;DHT22;19359;51.402;6.778;2023-04-25T10:17:02;11.30;1.00
7784;DHT22;19359;51.402;6.778;2023-04-25T10:19:29;11.20;1.00
7784;DHT22;19359;51.402;6.778;2023-04-25T10:22:02;11.40;1.00
7784;DHT22;19359;51.402;6.778;2023-04-25T10:24:29;11.20;1.00
7784;DHT22;19359;51.402;6.778;2023-04-25T10:26:57;11.00;1.00
7784;DHT22;19359;51.402;6.778;2023-04-25T10:29:25;10.70;1.00
7784;DHT22;19359;51.402;6.778;2023-04-25T10:31:52;10.50;1.00
7784;DHT22;19359;51.402;6.778;2023-04-25T10:34:24;10.60;1.00
7784;DHT22;19359;51.402;6.778;2023-04-25T10:36:52;10.30;1.00
7784;DHT22;19359;51.402;6.778;2023-04-25T10:39:23;10.40;1.00
7784;DHT22;19359;51.402;6.778;2023-04-25T10:41:56;10.70;1.00
7784;DHT22;19359;51.402;6.778;2023-04-25T10:44:26;11.10;1.00
7784;DHT22;19359;51.402;6.778;2023-04-25T10:46:55;11.40;1.00
7784;DHT22;19359;51.402;6.778;2023-04-25T10:49:31;11.60;1.00
7784;DHT22;19359;51.402;6.778;2023-04-25T10:52:11;11.50;1.00
7784;DHT22;19359;51.402;6.778;2023-04-25T10:54:41;11.40;1.00
7784;DHT22;19359;51.402;6.778;2023-04-25T10:57:26;11.20;1.00
7784;DHT22;19359;51.402;6.778;2023-04-25T10:59:54;10.80;1.00
7784;DHT22;19359;51.402;6.778;2023-04-25T11:02:21;10.80;1.00
7784;DHT22;19359;51.402;6.778;2023-04-25T11:04:53;10.10;1.00
7784;DHT22;19359;51.402;6.778;2023-04-25T11:09:50;9.90;1.00
7784;DHT22;19359;51.402;6.778;2023-04-25T11:12:17;9.80;1.00
7784;DHT22;19359;51.402;6.778;2023-04-25T11:14:44;9.50;1.00
7784;DHT22;19359;51.402;6.778;2023-04-25T11:17:11;9.50;1.00
7784;DHT22;19359;51.402;6.778;2023-04-25T11:19:38;9.50;1.00
7784;DHT22;19359;51.402;6.778;2023-04-25T11:22:06;9.50;1.00
7784;DHT22;19359;51.402;6.778;2023-04-25T11:24:34;9.60;1.00
7784;DHT22;19359;51.402;6.778;2023-04-25T11:27:02;9.60;1.00
7784;DHT22;19359;51.402;6.778;2023-04-25T11:29:31;9.60;1.00
7784;DHT22;19359;51.402;6.778;2023-04-25T11:31:58;9.80;1.00
7784;DHT22;19359;51.402;6.778;2023-04-25T11:34:26;9.80;1.00
7784;DHT22;19359;51.402;6.778;2023-04-25T11:36:56;9.80;1.00
7784;DHT22;19359;51.402;6.778;2023-04-25T11:39:25;9.70;1.00
7784;DHT22;19359;51.402;6.778;2023-04-25T11:41:52;9.80;1.00
7784;DHT22;19359;51.402;6.778;2023-04-25T11:44:20;9.90;1.00
7784;DHT22;19359;51.402;6.778;2023-04-25T11:46:47;9.30;1.00
7784;DHT22;19359;51.402;6.778;2023-04-25T11:49:15;9.30;1.00
7784;DHT22;19359;51.402;6.778;2023-04-25T11:51:45;9.20;1.00
7784;DHT22;19359;51.402;6.778;2023-04-25T11:54:12;9.20;1.00
7784;DHT22;19359;51.402;6.778;2023-04-25T11:56:41;9.10;1.00
7784;DHT22;19359;51.402;6.778;2023-04-25T11:59:08;9.00;1.00
7784;DHT22;19359;51.402;6.778;2023-04-25T12:01:36;9.10;1.00
7784;DHT22;19359;51.402;6.778;2023-04-25T12:04:14;8.80;1.00
7784;DHT22;19359;51.402;6.778;2023-04-25T12:06:42;8.80;1.00
7784;DHT22;19359;51.402;6.778;2023-04-25T12:09:10;8.60;1.00
7784;DHT22;19359;51.402;6.778;2023-04-25T12:11:43;8.70;1.00
7784;DHT22;19359;51.402;6.778;2023-04-25T12:14:10;8.70;2.50
7784;DHT22;19359;51.402;6.778;2023-04-25T12:16:41;8.90;1.00
7784;DHT22;19359;51.402;6.778;2023-04-25T12:19:08;9.00;1.00
7784;DHT22;19359;51.402;6.778;2023-04-25T12:21:34;9.30;1.00
7784;DHT22;19359;51.402;6.778;2023-04-25T12:24:12;9.10;1.00
7784;DHT22;19359;51.402;6.778;2023-04-25T12:26:48;9.30;1.00
7784;DHT22;19359;51.402;6.778;2023-04-25T12:29:16;9.80;1.00
7784;DHT22;19359;51.402;6.778;2023-04-25T12:31:43;10.30;1.00
7784;DHT22;19359;51.402;6.778;2023-04-25T12:36:37;12.00;1.00
7784;DHT22;19359;51.402;6.778;2023-04-25T12:39:04;12.40;1.00
7784;DHT22;19359;51.402;6.778;2023-04-25T12:41:32;12.60;1.00
7784;DHT22;19359;51.402;6.778;2023-04-25T12:46:27;12.60;1.00
7784;DHT22;19359;51.402;6.778;2023-04-25T12:48:53;13.00;1.00
7784;DHT22;19359;51.402;6.778;2023-04-25T12:51:21;13.20;1.00
7784;DHT22;19359;51.402;6.778;2023-04-25T12:56:17;14.00;1.00
7784;DHT22;19359;51.402;6.778;2023-04-25T12:58:44;14.20;1.00
7784;DHT22;19359;51.402;6.778;2023-04-25T13:01:12;13.70;1.00
7784;DHT22;19359;51.402;6.778;2023-04-25T13:03:39;13.60;1.00
7784;DHT22;19359;51.402;6.778;2023-04-25T13:06:06;13.00;1.00
7784;DHT22;19359;51.402;6.778;2023-04-25T13:08:33;12.00;1.00
7784;DHT22;19359;51.402;6.778;2023-04-25T13:11:00;11.50;1.00
7784;DHT22;19359;51.402;6.778;2023-04-25T13:13:27;10.80;1.00
7784;DHT22;19359;51.402;6.778;2023-04-25T13:15:54;10.40;1.00
7784;DHT22;19359;51.402;6.778;2023-04-25T13:18:22;10.30;1.00
7784;DHT22;19359;51.402;6.778;2023-04-25T13:23:19;10.00;1.00
7784;DHT22;19359;51.402;6.778;2023-04-25T13:25:46;10.00;1.00
7784;DHT22;19359;51.402;6.778;2023-04-25T13:30:40;10.10;1.00
7784;DHT22;19359;51.402;6.778;2023-04-25T13:33:07;10.20;1.00
7784;DHT22;19359;51.402;6.778;2023-04-25T13:35:37;10.80;1.00
7784;DHT22;19359;51.402;6.778;2023-04-25T13:38:04;12.00;1.00
7784;DHT22;19359;51.402;6.778;2023-04-25T13:42:58;14.50;1.00
7784;DHT22;19359;51.402;6.778;2023-04-25T13:45:25;15.60;1.00
7784;DHT22;19359;51.402;6.778;2023-04-25T13:47:52;16.60;1.00
7784;DHT22;19359;51.402;6.778;2023-04-25T13:52:47;14.60;1.00
7784;DHT22;19359;51.402;6.778;2023-04-25T13:55:14;12.80;1.00
7784;DHT22;19359;51.402;6.778;2023-04-25T14:00:09;11.70;1.00
7784;DHT22;19359;51.402;6.778;2023-04-25T14:05:04;11.50;1.00
7784;DHT22;19359;51.402;6.778;2023-04-25T14:07:31;11.50;1.00
7784;DHT22;19359;51.402;6.778;2023-04-25T14:09:59;11.50;1.00
7784;DHT22;19359;51.402;6.778;2023-04-25T14:12:26;11.30;1.00
7784;DHT22;19359;51.402;6.778;2023-04-25T14:14:52;11.20;1.00
7784;DHT22;19359;51.402;6.778;2023-04-25T14:17:19;11.50;1.00
7784;DHT22;19359;51.402;6.778;2023-04-25T14:19:46;12.80;1.00
7784;DHT22;19359;51.402;6.778;2023-04-25T14:24:40;14.30;1.00
7784;DHT22;19359;51.402;6.778;2023-04-25T14:29:36;12.80;1.00
7784;DHT22;19359;51.402;6.778;2023-04-25T14:32:02;12.20;1.00
7784;DHT22;19359;51.402;6.778;2023-04-25T14:34:30;11.80;1.00
7784;DHT22;19359;51.402;6.778;2023-04-25T14:36:57;11.50;1.00
7784;DHT22;19359;51.402;6.778;2023-04-25T14:39:24;11.40;1.00
7784;DHT22;19359;51.402;6.778;2023-04-25T14:41:50;11.30;1.00
7784;DHT22;19359;51.402;6.778;2023-04-25T14:44:18;11.20;1.00
7784;DHT22;19359;51.402;6.778;2023-04-25T14:46:45;11.30;1.00
7784;DHT22;19359;51.402;6.778;2023-04-25T14:49:12;11.20;1.00
7784;DHT22;19359;51.402;6.778;2023-04-25T14:51:39;10.90;1.00
7784;DHT22;19359;51.402;6.778;2023-04-25T14:54:06;10.80;1.00
7784;DHT22;19359;51.402;6.778;2023-04-25T14:56:33;10.70;1.00
7784;DHT22;19359;51.402;6.778;2023-04-25T14:59:00;10.60;1.00
7784;DHT22;19359;51.402;6.778;2023-04-25T15:01:28;10.70;1.00
7784;DHT22;19359;51.402;6.778;2023-04-25T15:03:55;10.70;1.00
7784;DHT22;19359;51.402;6.778;2023-04-25T15:06:22;11.60;1.00
7784;DHT22;19359;51.402;6.778;2023-04-25T15:11:19;15.00;1.00
7784;DHT22;19359;51.402;6.778;2023-04-25T15:16:14;14.00;1.00
7784;DHT22;19359;51.402;6.778;2023-04-25T15:18:42;12.90;1.00
7784;DHT22;19359;51.402;6.778;2023-04-25T15:21:09;12.30;1.00
7784;DHT22;19359;51.402;6.778;2023-04-25T15:23:36;12.10;1.00
7784;DHT22;19359;51.402;6.778;2023-04-25T15:26:03;11.50;1.00
7784;DHT22;19359;51.402;6.778;2023-04-25T15:28:30;11.30;1.00
7784;DHT22;19359;51.402;6.778;2023-04-25T15:30:59;11.30;1.00
7784;DHT22;19359;51.402;6.778;2023-04-25T15:33:26;11.00;1.00
7784;DHT22;19359;51.402;6.778;2023-04-25T15:38:23;10.80;1.00
7784;DHT22;19359;51.402;6.778;2023-04-25T15:40:49;11.00;1.00
7784;DHT22;19359;51.402;6.778;2023-04-25T15:43:18;11.60;1.00
7784;DHT22;19359;51.402;6.778;2023-04-25T15:45:44;13.40;1.00
7784;DHT22;19359;51.402;6.778;2023-04-25T15:48:11;14.80;1.00
7784;DHT22;19359;51.402;6.778;2023-04-25T15:50:38;16.10;1.00
7784;DHT22;19359;51.402;6.778;2023-04-25T15:53:06;16.00;1.00
7784;DHT22;19359;51.402;6.778;2023-04-25T15:58:00;16.10;1.00
7784;DHT22;19359;51.402;6.778;2023-04-25T16:00:27;16.30;1.00
7784;DHT22;19359;51.402;6.778;2023-04-25T16:02:55;15.30;1.00
7784;DHT22;19359;51.402;6.778;2023-04-25T16:05:22;13.70;1.00
7784;DHT22;19359;51.402;6.778;2023-04-25T16:07:49;12.40;1.00
7784;DHT22;19359;51.402;6.778;2023-04-25T16:10:19;11.70;1.00
7784;DHT22;19359;51.402;6.778;2023-04-25T16:12:47;11.30;1.00
7784;DHT22;19359;51.402;6.778;2023-04-25T16:15:14;11.40;1.00
7784;DHT22;19359;51.402;6.778;2023-04-25T16:17:41;11.00;1.00
7784;DHT22;19359;51.402;6.778;2023-04-25T16:20:09;10.90;1.00
7784;DHT22;19359;51.402;6.778;2023-04-25T16:22:38;10.80;1.00
7784;DHT22;19359;51.402;6.778;2023-04-25T16:25:05;10.70;1.00
7784;DHT22;19359;51.402;6.778;2023-04-25T16:27:34;11.00;1.00
7784;DHT22;19359;51.402;6.778;2023-04-25T16:30:03;11.20;1.00
7784;DHT22;19359;51.402;6.778;2023-04-25T16:32:30;11.30;1.00
7784;DHT22;19359;51.402;6.778;2023-04-25T16:34:57;10.40;1.00
7784;DHT22;19359;51.402;6.778;2023-04-25T16:37:24;10.50;1.00
7784;DHT22;19359;51.402;6.778;2023-04-25T16:42:17;10.40;1.00
7784;DHT22;19359;51.402;6.778;2023-04-25T16:44:45;10.40;1.00
7784;DHT22;19359;51.402;6.778;2023-04-25T16:49:39;10.20;1.00
7784;DHT22;19359;51.402;6.778;2023-04-25T16:52:06;10.20;1.00
7784;DHT22;19359;51.402;6.778;2023-04-25T16:57:00;10.10;1.00
7784;DHT22;19359;51.402;6.778;2023-04-25T16:59:28;10.10;1.00
7784;DHT22;19359;51.402;6.778;2023-04-25T17:01:58;10.10;1.00
7784;DHT22;19359;51.402;6.778;2023-04-25T17:04:24;10.10;1.00
7784;DHT22;19359;51.402;6.778;2023-04-25T17:06:51;10.00;1.00
7784;DHT22;19359;51.402;6.778;2023-04-25T17:09:18;9.90;1.00
7784;DHT22;19359;51.402;6.778;2023-04-25T17:11:44;10.00;1.00
7784;DHT22;19359;51.402;6.778;2023-04-25T17:14:11;10.00;1.00
7784;DHT22;19359;51.402;6.778;2023-04-25T17:16:38;10.10;1.00
7784;DHT22;19359;51.402;6.778;2023-04-25T17:19:08;10.00;1.00
7784;DHT22;19359;51.402;6.778;2023-04-25T17:21:34;10.10;1.00
7784;DHT22;19359;51.402;6.778;2023-04-25T17:24:01;10.10;1.00
7784;DHT22;19359;51.402;6.778;2023-04-25T17:26:30;10.10;1.00
7784;DHT22;19359;51.402;6.778;2023-04-25T17:28:57;10.30;1.00
7784;DHT22;19359;51.402;6.778;2023-04-25T17:31:24;10.90;1.00
7784;DHT22;19359;51.402;6.778;2023-04-25T17:36:20;10.60;1.00
7784;DHT22;19359;51.402;6.778;2023-04-25T17:38:47;11.40;1.00
7784;DHT22;19359;51.402;6.778;2023-04-25T17:41:14;11.90;1.00
7784;DHT22;19359;51.402;6.778;2023-04-25T17:46:08;11.10;1.00
7784;DHT22;19359;51.402;6.778;2023-04-25T17:48:35;10.90;1.00
7784;DHT22;19359;51.402;6.778;2023-04-25T17:51:02;10.70;1.00
7784;DHT22;19359;51.402;6.778;2023-04-25T17:53:30;10.60;1.00
7784;DHT22;19359;51.402;6.778;2023-04-25T17:55:57;10.50;1.00
7784;DHT22;19359;51.402;6.778;2023-04-25T18:00:51;10.00;1.00
7784;DHT22;19359;51.402;6.778;2023-04-25T18:03:18;10.00;1.00
7784;DHT22;19359;51.402;6.778;2023-04-25T18:05:45;9.80;1.00
7784;DHT22;19359;51.402;6.778;2023-04-25T18:08:12;9.70;1.00
7784;DHT22;19359;51.402;6.778;2023-04-25T18:10:40;9.50;1.00
7784;DHT22;19359;51.402;6.778;2023-04-25T18:13:07;9.40;1.00
7784;DHT22;19359;51.402;6.778;2023-04-25T18:15:34;9.40;1.00
7784;DHT22;19359;51.402;6.778;2023-04-25T18:18:01;9.20;1.00
7784;DHT22;19359;51.402;6.778;2023-04-25T18:35:20;8.80;1.00
7784;DHT22;19359;51.402;6.778;2023-04-25T18:45:10;8.60;1.00
7784;DHT22;19359;51.402;6.778;2023-04-25T18:50:05;8.60;1.00
7784;DHT22;19359;51.402;6.778;2023-04-25T18:59:55;8.50;1.00
7784;DHT22;19359;51.402;6.778;2023-04-25T19:09:46;8.40;1.00
7784;DHT22;19359;51.402;6.778;2023-04-25T19:26:59;8.20;1.00
7784;DHT22;19359;51.402;6.778;2023-04-25T19:39:21;8.10;1.00
7784;DHT22;19359;51.402;6.778;2023-04-25T19:46:42;8.00;1.00
7784;DHT22;19359;51.402;6.778;2023-04-25T19:54:07;7.90;1.00
7784;DHT22;19359;51.402;6.778;2023-04-25T19:56:34;8.00;1.00
7784;DHT22;19359;51.402;6.778;2023-04-25T20:08:51;7.70;1.00
7784;DHT22;19359;51.402;6.778;2023-04-25T20:26:06;7.50;1.00
7784;DHT22;19359;51.402;6.778;2023-04-25T20:38:24;6.90;1.00
7784;DHT22;19359;51.402;6.778;2023-04-25T20:40:51;6.90;1.00
7784;DHT22;19359;51.402;6.778;2023-04-25T20:45:49;7.00;1.00
7784;DHT22;19359;51.402;6.778;2023-04-25T20:53:11;6.70;1.00
7784;DHT22;19359;51.402;6.778;2023-04-25T20:58:06;6.50;1.00
7784;DHT22;19359;51.402;6.778;2023-04-25T21:00:34;6.50;1.00
7784;DHT22;19359;51.402;6.778;2023-04-25T21:03:02;6.10;1.00
7784;DHT22;19359;51.402;6.778;2023-04-25T21:07:57;6.00;1.00
7784;DHT22;19359;51.402;6.778;2023-04-25T21:15:18;5.60;10.70
7784;DHT22;19359;51.402;6.778;2023-04-25T21:20:14;5.50;1.00
7784;DHT22;19359;51.402;6.778;2023-04-25T21:25:14;5.40;22.40
7784;DHT22;19359;51.402;6.778;2023-04-25T21:30:12;5.00;27.50
7784;DHT22;19359;51.402;6.778;2023-04-25T21:32:40;4.90;29.60
7784;DHT22;19359;51.402;6.778;2023-04-25T21:35:08;4.80;32.70
7784;DHT22;19359;51.402;6.778;2023-04-25T21:37:36;4.80;16.40
7784;DHT22;19359;51.402;6.778;2023-04-25T21:40:04;4.50;36.90
7784;DHT22;19359;51.402;6.778;2023-04-25T21:45:00;4.60;42.00
7784;DHT22;19359;51.402;6.778;2023-04-25T21:52:21;4.40;48.80
7784;DHT22;19359;51.402;6.778;2023-04-25T21:57:17;4.30;50.40
7784;DHT22;19359;51.402;6.778;2023-04-25T22:02:12;4.30;52.70
7784;DHT22;19359;51.402;6.778;2023-04-25T22:07:07;4.20;55.80
7784;DHT22;19359;51.402;6.778;2023-04-25T22:12:04;4.00;60.00
7784;DHT22;19359;51.402;6.778;2023-04-25T22:29:22;3.30;67.40
7784;DHT22;19359;51.402;6.778;2023-04-25T22:49:04;3.40;78.10
7784;DHT22;19359;51.402;6.778;2023-04-25T23:03:48;3.40;57.30
7784;DHT22;19359;51.402;6.778;2023-04-25T23:21:02;3.20;58.70
7784;DHT22;19359;51.402;6.778;2023-04-25T23:25:57;3.10;59.90
7784;DHT22;19359;51.402;6.778;2023-04-25T23:48:03;2.90;92.80
7784;DHT22;19359;51.402;6.778;2023-04-25T23:55:26;2.70;69.00
